Time;durP1;ratioP1;P1;durP2;ratioP2;P2;SDS_P1;SDS_P2;PMS_P1;PMS_P2;Temp;Humidity;BMP_temperature;BMP_pressure;BME280_temperature;BME280_humidity;BME280_pressure;Samples;Min_cycle;Max_cycle;Signal;HPM_P1;HPM_P2
2023/06/12 00:01:20;;;;;;;5.90;4.30;;;;;;;-145.41;100.00;58600.66;5024267;28;20089;-76
2023/06/12 00:03:47;;;;;;;6.55;4.47;;;;;;;-145.41;100.00;58600.66;5030049;28;20104;-75
2023/06/12 00:06:15;;;;;;;7.72;4.80;;;;;;;-145.41;100.00;58600.66;5027804;28;20043;-75
2023/06/12 00:08:41;;;;;;;7.38;5.15;;;;;;;-145.41;100.00;58600.66;5022837;28;20441;-76
2023/06/12 00:11:09;;;;;;;7.93;5.20;;;;;;;-145.41;100.00;58600.66;5028173;28;20116;-76
2023/06/12 00:13:36;;;;;;;5.88;4.22;;;;;;;-145.41;100.00;58600.66;5023925;28;20116;-75
2023/06/12 00:16:02;;;;;;;7.53;4.45;;;;;;;-145.41;100.00;58600.66;5028051;28;20033;-75
2023/06/12 00:18:27;;;;;;;8.15;4.13;;;;;;;-145.41;100.00;58600.66;5003816;28;20400;-76
2023/06/12 00:20:52;;;;;;;7.43;4.43;;;;;;;-145.41;100.00;58600.66;5026201;28;20033;-76
2023/06/12 00:23:18;;;;;;;8.60;4.55;;;;;;;-145.41;100.00;58600.66;5023167;28;20171;-76
2023/06/12 00:25:43;;;;;;;5.88;4.25;;;;;;;-145.41;100.00;58600.66;5021949;28;20036;-75
2023/06/12 00:28:08;;;;;;;5.50;4.10;;;;;;;-145.41;100.00;58600.66;5026494;28;20044;-76
2023/06/12 00:30:34;;;;;;;6.82;4.60;;;;;;;-145.41;100.00;58600.66;5030073;28;20037;-76
2023/06/12 00:32:59;;;;;;;6.00;4.47;;;;;;;-145.41;100.00;58600.66;5019772;28;20030;-75
2023/06/12 00:35:25;;;;;;;6.97;4.05;;;;;;;-145.41;100.00;58600.66;4993070;28;20180;-76
2023/06/12 00:37:50;;;;;;;7.00;3.78;;;;;;;-145.41;100.00;58600.66;5012745;28;20052;-76
2023/06/12 00:40:16;;;;;;;8.02;4.25;;;;;;;-145.41;100.00;58600.66;5026078;28;20140;-75
2023/06/12 00:42:45;;;;;;;6.43;3.80;;;;;;;-145.41;100.00;58600.66;5009311;28;20030;-75
2023/06/12 00:45:16;;;;;;;7.25;3.88;;;;;;;-145.41;100.00;58600.66;5028338;28;20442;-75
2023/06/12 00:47:46;;;;;;;6.28;3.90;;;;;;;-145.41;100.00;58600.66;5009506;28;20068;-75
2023/06/12 00:50:12;;;;;;;7.65;3.72;;;;;;;-145.41;100.00;58600.66;5024874;28;20044;-76
2023/06/12 00:52:44;;;;;;;6.57;3.65;;;;;;;-145.41;100.00;58600.66;5028705;28;20029;-75
2023/06/12 00:55:11;;;;;;;7.28;3.63;;;;;;;-145.41;100.00;58600.66;5024438;28;20041;-75
2023/06/12 00:57:38;;;;;;;7.82;3.45;;;;;;;-145.41;100.00;58600.66;5032743;28;20120;-75
2023/06/12 01:00:07;;;;;;;6.95;3.10;;;;;;;-145.41;100.00;58600.66;5027210;28;20037;-76
2023/06/12 01:02:39;;;;;;;6.28;3.30;;;;;;;-145.41;100.00;58600.66;5015906;28;20025;-76
2023/06/12 01:05:10;;;;;;;5.20;3.07;;;;;;;-145.41;100.00;58600.66;5030902;28;20052;-76
2023/06/12 01:07:45;;;;;;;5.75;3.20;;;;;;;-145.41;100.00;58600.66;5027587;28;20060;-76
2023/06/12 01:10:30;;;;;;;5.07;3.47;;;;;;;-145.41;100.00;58600.66;5011657;28;20038;-76
2023/06/12 01:12:58;;;;;;;4.25;2.83;;;;;;;-145.41;100.00;58600.66;5008820;28;20180;-76
2023/06/12 01:15:23;;;;;;;5.35;2.75;;;;;;;-145.41;100.00;58600.66;5004628;28;20183;-76
2023/06/12 01:17:49;;;;;;;5.53;3.38;;;;;;;-145.41;100.00;58600.66;5028435;28;20089;-76
2023/06/12 01:20:16;;;;;;;6.63;2.80;;;;;;;-145.41;100.00;58600.66;5031875;28;20399;-76
2023/06/12 01:22:50;;;;;;;4.90;3.15;;;;;;;-145.41;100.00;58600.66;5022184;28;20468;-76
2023/06/12 01:25:35;;;;;;;7.38;3.40;;;;;;;-145.41;100.00;58600.66;5029008;28;20419;-76
2023/06/12 01:28:21;;;;;;;3.75;2.42;;;;;;;-145.41;100.00;58600.66;5021382;28;20038;-75
2023/06/12 01:30:57;;;;;;;5.90;3.08;;;;;;;-145.41;100.00;58600.66;5001253;28;20068;-76
2023/06/12 01:33:33;;;;;;;5.00;2.95;;;;;;;-145.41;100.00;58600.66;5032262;28;20380;-76
2023/06/12 01:36:00;;;;;;;5.55;3.17;;;;;;;-145.41;100.00;58600.66;5025134;28;20060;-76
2023/06/12 01:38:29;;;;;;;4.95;2.80;;;;;;;-145.41;100.00;58600.66;5012913;28;20036;-76
2023/06/12 01:40:56;;;;;;;5.78;2.90;;;;;;;-145.41;100.00;58600.66;5020432;28;20036;-76
2023/06/12 01:43:22;;;;;;;5.53;2.78;;;;;;;-145.41;100.00;58600.66;4999403;28;20057;-76
2023/06/12 01:45:47;;;;;;;5.97;3.08;;;;;;;-145.41;100.00;58600.66;5029481;28;20026;-76
2023/06/12 01:48:14;;;;;;;6.20;3.00;;;;;;;-145.41;100.00;58600.66;5020278;28;20451;-76
2023/06/12 01:50:40;;;;;;;5.63;3.03;;;;;;;-145.41;100.00;58600.66;5029318;28;20033;-76
2023/06/12 01:53:07;;;;;;;4.18;3.20;;;;;;;-145.41;100.00;58600.66;5028566;28;20496;-75
2023/06/12 01:55:34;;;;;;;6.15;3.13;;;;;;;-145.41;100.00;58600.66;5015288;28;20032;-76
2023/06/12 01:58:00;;;;;;;6.07;3.10;;;;;;;-145.41;100.00;58600.66;5022236;28;20041;-76
2023/06/12 02:00:48;;;;;;;5.13;3.30;;;;;;;-145.41;100.00;58600.66;5031614;28;20172;-76
2023/06/12 02:03:14;;;;;;;4.88;3.33;;;;;;;-145.41;100.00;58600.66;5029445;28;20124;-76
2023/06/12 02:05:39;;;;;;;4.85;2.88;;;;;;;-145.41;100.00;58600.66;5019633;28;20540;-75
2023/06/12 02:08:04;;;;;;;4.38;2.88;;;;;;;-145.41;100.00;58600.66;5018869;28;20025;-77
2023/06/12 02:10:30;;;;;;;6.40;3.05;;;;;;;-145.41;100.00;58600.66;5011571;28;20025;-76
2023/06/12 02:12:55;;;;;;;6.72;3.25;;;;;;;-145.41;100.00;58600.66;5027289;28;20067;-77
2023/06/12 02:15:21;;;;;;;7.53;3.10;;;;;;;-145.41;100.00;58600.66;5029498;28;20033;-77
2023/06/12 02:17:46;;;;;;;4.65;2.67;;;;;;;-145.41;100.00;58600.66;5030563;28;20497;-77
2023/06/12 02:20:12;;;;;;;7.60;2.85;;;;;;;-145.41;100.00;58600.66;5020964;28;20044;-77
2023/06/12 02:22:38;;;;;;;6.57;2.80;;;;;;;-145.41;100.00;58600.66;5032078;28;20467;-77
2023/06/12 02:25:04;;;;;;;5.40;2.72;;;;;;;-145.41;100.00;58600.66;5025543;28;20033;-77
2023/06/12 02:27:31;;;;;;;4.88;3.08;;;;;;;-145.41;100.00;58600.66;5014439;28;20037;-77
2023/06/12 02:29:56;;;;;;;3.72;2.70;;;;;;;-145.41;100.00;58600.66;5013682;28;20037;-77
2023/06/12 02:32:22;;;;;;;5.50;2.50;;;;;;;-145.41;100.00;58600.66;5014414;28;20057;-77
2023/06/12 02:34:48;;;;;;;5.93;3.10;;;;;;;-145.41;100.00;58600.66;5025173;28;20494;-78
2023/06/12 02:37:14;;;;;;;4.30;2.70;;;;;;;-145.41;100.00;58600.66;5014076;28;20025;-77
2023/06/12 02:39:43;;;;;;;6.22;2.80;;;;;;;-145.41;100.00;58600.66;5013582;28;20100;-77
2023/06/12 02:42:08;;;;;;;5.38;2.85;;;;;;;-145.41;100.00;58600.66;5020054;28;20570;-77
2023/06/12 02:44:35;;;;;;;4.55;2.47;;;;;;;-145.41;100.00;58600.66;5030331;28;20033;-77
2023/06/12 02:47:01;;;;;;;4.20;2.60;;;;;;;-145.41;100.00;58600.66;5029760;28;20417;-77
2023/06/12 02:49:33;;;;;;;4.53;2.58;;;;;;;-145.41;100.00;58600.66;5033154;28;20083;-77
2023/06/12 02:51:59;;;;;;;6.55;2.75;;;;;;;-145.41;100.00;58600.66;5014112;28;20168;-77
2023/06/12 02:54:26;;;;;;;4.07;2.58;;;;;;;-145.41;100.00;58600.66;5019149;28;20021;-77
2023/06/12 02:56:54;;;;;;;5.07;3.58;;;;;;;-145.41;100.00;58600.66;5027696;28;20033;-77
2023/06/12 02:59:22;;;;;;;5.35;3.00;;;;;;;-145.41;100.00;58600.66;5021114;28;20037;-77
2023/06/12 03:01:49;;;;;;;6.30;3.22;;;;;;;-145.41;100.00;58600.66;5013083;28;20032;-77
2023/06/12 03:04:27;;;;;;;5.45;2.50;;;;;;;-145.41;100.00;58600.66;5011946;28;20028;-77
2023/06/12 03:06:53;;;;;;;4.35;2.60;;;;;;;-145.41;100.00;58600.66;5031168;28;20090;-77
2023/06/12 03:09:19;;;;;;;5.75;3.28;;;;;;;-145.41;100.00;58600.66;5019342;28;20025;-77
2023/06/12 03:11:45;;;;;;;5.55;2.80;;;;;;;-145.41;100.00;58600.66;5013866;28;20510;-76
2023/06/12 03:14:12;;;;;;;4.65;2.92;;;;;;;-145.41;100.00;58600.66;5028037;28;20506;-76
2023/06/12 03:16:38;;;;;;;6.43;2.95;;;;;;;-145.41;100.00;58600.66;5020166;28;20025;-77
2023/06/12 03:19:06;;;;;;;6.18;2.72;;;;;;;-145.41;100.00;58600.66;5030564;28;20377;-77
2023/06/12 03:21:35;;;;;;;4.70;2.97;;;;;;;-145.41;100.00;58600.66;5023326;28;20423;-76
2023/06/12 03:24:01;;;;;;;5.20;3.30;;;;;;;-145.41;100.00;58600.66;5002076;28;20510;-77
2023/06/12 03:26:30;;;;;;;4.93;2.80;;;;;;;-145.41;100.00;58600.66;5031135;28;20034;-76
2023/06/12 03:28:56;;;;;;;6.32;3.70;;;;;;;-145.41;100.00;58600.66;5009471;28;20086;-77
2023/06/12 03:31:24;;;;;;;6.70;4.05;;;;;;;-145.41;100.00;58600.66;5013657;28;20108;-76
2023/06/12 03:33:51;;;;;;;9.10;5.25;;;;;;;-145.41;100.00;58600.66;5020538;28;20411;-77
2023/06/12 03:36:16;;;;;;;9.48;5.97;;;;;;;-145.41;100.00;58600.66;5029133;28;20029;-76
2023/06/12 03:38:42;;;;;;;9.23;6.20;;;;;;;-145.41;100.00;58600.66;5022437;28;20029;-77
2023/06/12 03:41:08;;;;;;;7.28;5.68;;;;;;;-145.41;100.00;58600.66;5027304;28;20105;-76
2023/06/12 03:43:34;;;;;;;6.80;5.45;;;;;;;-145.41;100.00;58600.66;5011930;28;20141;-77
2023/06/12 03:45:59;;;;;;;9.20;5.68;;;;;;;-145.41;100.00;58600.66;5030103;28;20177;-76
2023/06/12 03:48:25;;;;;;;11.10;3.55;;;;;;;-145.41;100.00;58600.66;5000132;28;20045;-76
2023/06/12 03:50:51;;;;;;;8.85;3.20;;;;;;;-145.41;100.00;58600.66;5016179;28;20092;-77
2023/06/12 03:53:17;;;;;;;7.90;3.17;;;;;;;-145.41;100.00;58600.66;5017782;28;20067;-76
2023/06/12 03:55:43;;;;;;;4.18;3.00;;;;;;;-145.41;100.00;58600.66;5030623;28;20400;-77
2023/06/12 03:58:08;;;;;;;9.73;3.15;;;;;;;-145.41;100.00;58600.66;5018344;28;20033;-77
2023/06/12 04:00:35;;;;;;;6.60;3.70;;;;;;;-145.41;100.00;58600.66;5017822;28;20106;-76
2023/06/12 04:03:02;;;;;;;5.85;3.70;;;;;;;-145.41;100.00;58600.66;5012913;28;20083;-77
2023/06/12 04:05:27;;;;;;;6.65;3.85;;;;;;;-145.41;100.00;58600.66;5019088;28;20160;-77
2023/06/12 04:07:53;;;;;;;10.77;5.85;;;;;;;-145.41;100.00;58600.66;5030450;28;20104;-77
2023/06/12 04:10:18;;;;;;;8.73;6.30;;;;;;;-145.41;100.00;58600.66;5012690;28;20107;-77
2023/06/12 04:12:43;;;;;;;9.05;6.60;;;;;;;-145.41;100.00;58600.66;5029844;28;20029;-77
2023/06/12 04:15:09;;;;;;;10.15;6.22;;;;;;;-145.41;100.00;58600.66;5012747;28;20025;-76
2023/06/12 04:17:34;;;;;;;10.88;6.05;;;;;;;-145.41;100.00;58600.66;5012738;28;20059;-76
2023/06/12 04:20:01;;;;;;;7.90;5.60;;;;;;;-145.41;100.00;58600.66;5027346;28;20041;-76
2023/06/12 04:22:27;;;;;;;10.95;6.82;;;;;;;-145.41;100.00;58600.66;4991751;28;20037;-76
2023/06/12 04:24:53;;;;;;;9.40;7.00;;;;;;;-145.41;100.00;58600.66;5013431;28;20040;-76
2023/06/12 04:27:19;;;;;;;16.05;11.32;;;;;;;-145.41;100.00;58600.66;5026418;28;20026;-77
2023/06/12 04:29:46;;;;;;;9.98;7.53;;;;;;;-145.41;100.00;58600.66;5016743;28;20400;-77
2023/06/12 04:32:13;;;;;;;10.27;7.40;;;;;;;-145.41;100.00;58600.66;5013417;28;20484;-76
2023/06/12 04:34:41;;;;;;;13.07;6.97;;;;;;;-145.41;100.00;58600.66;5017785;28;20121;-76
2023/06/12 04:37:08;;;;;;;8.10;5.28;;;;;;;-145.41;100.00;58600.66;5015374;28;20033;-76
2023/06/12 04:39:40;;;;;;;8.68;5.30;;;;;;;-145.41;100.00;58600.66;5032923;28;20399;-77
2023/06/12 04:42:08;;;;;;;7.47;5.18;;;;;;;-145.41;100.00;58600.66;5031368;28;20030;-77
2023/06/12 04:44:39;;;;;;;7.93;5.40;;;;;;;-145.41;100.00;58600.66;5016428;28;20404;-77
2023/06/12 04:47:08;;;;;;;9.57;5.78;;;;;;;-145.41;100.00;58600.66;4999661;28;20030;-77
2023/06/12 04:49:35;;;;;;;7.28;5.18;;;;;;;-145.41;100.00;58600.66;5015378;28;20103;-76
2023/06/12 04:52:03;;;;;;;9.30;5.60;;;;;;;-145.41;100.00;58600.66;5015953;28;20476;-76
2023/06/12 04:54:35;;;;;;;10.23;5.72;;;;;;;-145.41;100.00;58600.66;5002199;28;20400;-76
2023/06/12 04:57:08;;;;;;;12.82;4.82;;;;;;;-145.41;100.00;58600.66;5031511;28;20125;-77
2023/06/12 04:59:37;;;;;;;8.70;5.60;;;;;;;-145.41;100.00;58600.66;5032307;28;20029;-76
2023/06/12 05:02:04;;;;;;;7.72;5.63;;;;;;;-145.41;100.00;58600.66;5014984;28;20076;-77
2023/06/12 05:04:30;;;;;;;48.03;36.40;;;;;;;-145.41;100.00;58600.66;5029918;28;20025;-77
2023/06/12 05:06:56;;;;;;;14.68;12.13;;;;;;;-145.41;100.00;58600.66;5023558;28;20377;-77
2023/06/12 05:09:22;;;;;;;8.68;4.43;;;;;;;-145.41;100.00;58600.66;5007825;28;20595;-77
2023/06/12 05:11:47;;;;;;;6.65;4.13;;;;;;;-145.41;100.00;58600.66;5034803;28;20028;-76
2023/06/12 05:14:12;;;;;;;8.27;5.03;;;;;;;-145.41;100.00;58600.66;5031714;28;20032;-77
2023/06/12 05:16:38;;;;;;;7.85;5.03;;;;;;;-145.41;100.00;58600.66;5032466;28;20037;-76
2023/06/12 05:19:05;;;;;;;6.93;4.45;;;;;;;-145.41;100.00;58600.66;5019194;28;20064;-76
2023/06/12 05:21:30;;;;;;;7.10;4.60;;;;;;;-145.41;100.00;58600.66;5032151;28;20030;-77
2023/06/12 05:23:56;;;;;;;6.88;5.32;;;;;;;-145.41;100.00;58600.66;5023140;28;20515;-77
2023/06/12 05:26:21;;;;;;;7.65;5.60;;;;;;;-145.41;100.00;58600.66;5023052;28;20030;-77
2023/06/12 05:28:47;;;;;;;6.80;4.22;;;;;;;-145.41;100.00;58600.66;5009428;28;20029;-78
2023/06/12 05:31:12;;;;;;;8.02;5.13;;;;;;;-145.41;100.00;58600.66;5031877;28;20480;-77
2023/06/12 05:33:38;;;;;;;8.30;5.47;;;;;;;-145.41;100.00;58600.66;5030363;28;20036;-77
2023/06/12 05:36:04;;;;;;;8.02;4.95;;;;;;;-145.41;100.00;58600.66;5030390;28;20034;-77
2023/06/12 05:38:30;;;;;;;11.40;5.55;;;;;;;-145.41;100.00;58600.66;5020340;28;20029;-77
2023/06/12 05:40:55;;;;;;;6.32;4.82;;;;;;;-145.41;100.00;58600.66;5000116;28;20034;-77
2023/06/12 05:43:21;;;;;;;9.30;4.97;;;;;;;-145.41;100.00;58600.66;5016204;28;20531;-77
2023/06/12 05:45:46;;;;;;;9.27;5.20;;;;;;;-145.41;100.00;58600.66;5029020;28;20021;-77
2023/06/12 05:48:12;;;;;;;7.47;4.95;;;;;;;-145.41;100.00;58600.66;5023353;28;20732;-77
2023/06/12 05:50:37;;;;;;;7.05;4.90;;;;;;;-145.41;100.00;58600.66;5029511;28;20029;-77
2023/06/12 05:53:04;;;;;;;10.73;5.13;;;;;;;-145.41;100.00;58600.66;5016286;28;20052;-77
2023/06/12 05:55:29;;;;;;;7.28;5.18;;;;;;;-145.41;100.00;58600.66;5026245;28;20087;-77
2023/06/12 05:57:55;;;;;;;9.57;5.68;;;;;;;-145.41;100.00;58600.66;5030352;28;20033;-77
2023/06/12 06:00:21;;;;;;;8.40;4.95;;;;;;;-145.41;100.00;58600.66;5019705;28;20556;-77
2023/06/12 06:02:50;;;;;;;9.45;5.35;;;;;;;-145.41;100.00;58600.66;5019276;28;20033;-77
2023/06/12 06:05:33;;;;;;;6.55;4.57;;;;;;;-145.41;100.00;58600.66;5031426;28;20033;-77
2023/06/12 06:08:07;;;;;;;9.43;5.38;;;;;;;-145.41;100.00;58600.66;5014741;28;20088;-77
2023/06/12 06:10:34;;;;;;;8.68;4.53;;;;;;;-145.41;100.00;58600.66;5027088;28;20108;-77
2023/06/12 06:13:01;;;;;;;8.48;4.65;;;;;;;-145.41;100.00;58600.66;5023531;28;20435;-77
2023/06/12 06:15:26;;;;;;;9.68;4.43;;;;;;;-145.41;100.00;58600.66;5015037;28;20029;-77
2023/06/12 06:17:52;;;;;;;7.78;4.72;;;;;;;-145.41;100.00;58600.66;5023099;28;20029;-77
2023/06/12 06:20:18;;;;;;;11.48;5.22;;;;;;;-145.41;100.00;58600.66;5021604;28;20025;-77
2023/06/12 06:22:44;;;;;;;11.70;5.80;;;;;;;-145.41;100.00;58600.66;5025487;28;20499;-77
2023/06/12 06:25:09;;;;;;;7.60;5.05;;;;;;;-145.41;100.00;58600.66;5014498;28;20033;-77
2023/06/12 06:27:35;;;;;;;6.43;4.38;;;;;;;-145.41;100.00;58600.66;5017901;28;20546;-77
2023/06/12 06:30:02;;;;;;;9.07;5.22;;;;;;;-145.41;100.00;58600.66;5031739;28;20488;-77
2023/06/12 06:32:27;;;;;;;7.15;4.82;;;;;;;-145.41;100.00;58600.66;5019566;28;20018;-77
2023/06/12 06:34:53;;;;;;;10.48;4.90;;;;;;;-145.41;100.00;58600.66;5030863;28;20487;-77
2023/06/12 06:37:18;;;;;;;10.13;4.82;;;;;;;-145.41;100.00;58600.66;5020047;28;20384;-77
2023/06/12 06:39:44;;;;;;;8.40;3.67;;;;;;;-145.41;100.00;58600.66;5031557;28;20025;-77
2023/06/12 06:42:10;;;;;;;6.70;4.43;;;;;;;-145.41;100.00;58600.66;5030797;28;20041;-77
2023/06/12 06:44:47;;;;;;;7.93;4.25;;;;;;;-145.41;100.00;58600.66;5029586;28;20499;-77
2023/06/12 06:47:16;;;;;;;7.93;5.18;;;;;;;-145.41;100.00;58600.66;5013904;28;20041;-77
2023/06/12 06:49:42;;;;;;;9.55;5.88;;;;;;;-145.41;100.00;58600.66;5025273;28;20030;-77
2023/06/12 06:52:07;;;;;;;9.00;3.95;;;;;;;-145.41;100.00;58600.66;5012844;28;20415;-77
2023/06/12 06:54:33;;;;;;;6.13;4.05;;;;;;;-145.41;100.00;58600.66;5021844;28;20033;-77
2023/06/12 06:57:00;;;;;;;7.65;5.45;;;;;;;-145.41;100.00;58600.66;5031332;28;20037;-77
2023/06/12 06:59:26;;;;;;;12.52;5.53;;;;;;;-145.41;100.00;58600.66;5013393;28;20164;-77
2023/06/12 07:01:51;;;;;;;6.28;4.97;;;;;;;-145.41;100.00;58600.66;5027633;28;20506;-77
2023/06/12 07:04:16;;;;;;;7.95;5.30;;;;;;;-145.41;100.00;58600.66;5030831;28;20407;-77
2023/06/12 07:06:42;;;;;;;13.40;5.65;;;;;;;-145.41;100.00;58600.66;5029037;28;20029;-77
2023/06/12 07:09:08;;;;;;;7.13;4.57;;;;;;;-145.41;100.00;58600.66;5024097;28;20029;-77
2023/06/12 07:11:34;;;;;;;10.32;5.05;;;;;;;-145.41;100.00;58600.66;5013645;28;20499;-77
2023/06/12 07:13:59;;;;;;;6.70;5.53;;;;;;;-145.41;100.00;58600.66;5013745;28;20044;-77
2023/06/12 07:16:25;;;;;;;7.70;5.47;;;;;;;-145.41;100.00;58600.66;5031087;28;20029;-77
2023/06/12 07:18:50;;;;;;;8.55;5.88;;;;;;;-145.41;100.00;58600.66;5029379;28;20049;-77
2023/06/12 07:21:15;;;;;;;8.95;5.43;;;;;;;-145.41;100.00;58600.66;5031198;28;20104;-77
2023/06/12 07:23:41;;;;;;;9.30;6.03;;;;;;;-145.41;100.00;58600.66;5031309;28;20496;-77
2023/06/12 07:26:06;;;;;;;9.90;5.38;;;;;;;-145.41;100.00;58600.66;5031585;28;20034;-77
2023/06/12 07:28:32;;;;;;;6.53;4.68;;;;;;;-145.41;100.00;58600.66;5025543;28;20029;-77
2023/06/12 07:30:57;;;;;;;8.98;6.05;;;;;;;-145.41;100.00;58600.66;5023949;28;20041;-77
2023/06/12 07:33:23;;;;;;;11.02;5.43;;;;;;;-145.41;100.00;58600.66;5027491;28;20482;-77
2023/06/12 07:35:48;;;;;;;10.43;5.07;;;;;;;-145.41;100.00;58600.66;5013845;28;20504;-77
2023/06/12 07:38:15;;;;;;;9.70;5.90;;;;;;;-145.41;100.00;58600.66;4996264;28;20037;-78
2023/06/12 07:40:40;;;;;;;7.90;4.40;;;;;;;-145.41;100.00;58600.66;5005557;28;20063;-77
2023/06/12 07:43:06;;;;;;;7.30;5.40;;;;;;;-145.41;100.00;58600.66;5012058;28;20070;-77
2023/06/12 07:45:31;;;;;;;8.57;6.45;;;;;;;-145.41;100.00;58600.66;5013360;28;20026;-77
2023/06/12 07:47:57;;;;;;;11.23;6.57;;;;;;;-145.41;100.00;58600.66;5029484;28;20033;-77
2023/06/12 07:50:26;;;;;;;10.82;5.95;;;;;;;-145.41;100.00;58600.66;4997442;28;20029;-77
2023/06/12 07:52:53;;;;;;;8.20;4.25;;;;;;;-145.41;100.00;58600.66;5013032;28;20029;-77
2023/06/12 07:55:20;;;;;;;5.07;3.25;;;;;;;-145.41;100.00;58600.66;5013052;28;20510;-77
2023/06/12 07:57:47;;;;;;;6.05;4.43;;;;;;;-145.41;100.00;58600.66;5011771;28;20399;-77
2023/06/12 08:00:13;;;;;;;9.57;6.45;;;;;;;-145.41;100.00;58600.66;5015430;28;20033;-77
2023/06/12 08:02:46;;;;;;;10.32;6.30;;;;;;;-145.41;100.00;58600.66;5031974;28;20037;-77
2023/06/12 08:05:12;;;;;;;11.18;6.50;;;;;;;-145.41;100.00;58600.66;5002021;28;20466;-77
2023/06/12 08:07:37;;;;;;;8.38;6.18;;;;;;;-145.41;100.00;58600.66;5032784;28;20049;-77
2023/06/12 08:10:04;;;;;;;7.43;5.57;;;;;;;-145.41;100.00;58600.66;5030035;28;20029;-78
2023/06/12 08:12:29;;;;;;;6.75;4.90;;;;;;;-145.41;100.00;58600.66;5021403;23;20416;-74
2023/06/12 08:14:55;;;;;;;8.57;5.97;;;;;;;-145.41;100.00;58600.66;4993880;28;20035;-73
2023/06/12 08:17:21;;;;;;;8.18;5.53;;;;;;;-145.41;100.00;58600.66;4982188;28;20080;-74
2023/06/12 08:19:48;;;;;;;7.53;5.05;;;;;;;-145.41;100.00;58600.66;4981666;28;20120;-73
2023/06/12 08:22:15;;;;;;;15.02;6.18;;;;;;;-145.41;100.00;58600.66;4988273;28;20042;-72
2023/06/12 08:24:41;;;;;;;6.20;5.28;;;;;;;-145.41;100.00;58600.66;4974412;28;20027;-73
2023/06/12 08:27:06;;;;;;;8.43;4.95;;;;;;;-145.41;100.00;58600.66;4985614;28;20034;-73
2023/06/12 08:29:33;;;;;;;7.28;5.85;;;;;;;-145.41;100.00;58600.66;4994695;28;20108;-74
2023/06/12 08:31:58;;;;;;;6.95;5.20;;;;;;;-145.41;100.00;58600.66;4986360;28;20034;-73
2023/06/12 08:34:25;;;;;;;6.55;5.35;;;;;;;-145.41;100.00;58600.66;4981843;28;20145;-73
2023/06/12 08:36:55;;;;;;;12.60;5.75;;;;;;;-145.41;100.00;58600.66;4988034;28;20121;-73
2023/06/12 08:39:20;;;;;;;7.95;5.25;;;;;;;-145.41;100.00;58600.66;4990877;28;20041;-73
2023/06/12 08:41:53;;;;;;;9.30;5.85;;;;;;;-145.41;100.00;58600.66;4987747;28;20497;-73
2023/06/12 08:44:22;;;;;;;7.03;4.82;;;;;;;-145.41;100.00;58600.66;4994808;28;20034;-73
2023/06/12 08:46:52;;;;;;;5.78;4.50;;;;;;;-145.41;100.00;58600.66;4984114;28;20034;-74
2023/06/12 08:49:18;;;;;;;9.25;4.60;;;;;;;-145.41;100.00;58600.66;4999230;28;20025;-72
2023/06/12 08:51:43;;;;;;;7.63;4.30;;;;;;;-145.41;100.00;58600.66;4995791;28;20558;-73
2023/06/12 08:54:10;;;;;;;6.18;4.55;;;;;;;-145.41;100.00;58600.66;4991655;28;20066;-73
2023/06/12 08:56:36;;;;;;;5.20;4.15;;;;;;;-145.41;100.00;58600.66;4996704;28;20045;-73
2023/06/12 08:59:03;;;;;;;7.38;3.75;;;;;;;-145.41;100.00;58600.66;5000503;28;20088;-73
2023/06/12 09:01:30;;;;;;;6.38;4.78;;;;;;;-145.41;100.00;58600.66;4997377;28;20037;-73
2023/06/12 09:04:00;;;;;;;8.05;4.90;;;;;;;-145.41;100.00;58600.66;4998655;28;20040;-73
2023/06/12 09:06:29;;;;;;;12.77;5.28;;;;;;;-145.41;100.00;58600.66;5001949;28;20026;-74
2023/06/12 09:08:55;;;;;;;7.15;4.18;;;;;;;-145.41;100.00;58600.66;4999547;28;20033;-73
2023/06/12 09:11:20;;;;;;;4.82;3.83;;;;;;;-145.41;100.00;58600.66;4999671;28;20405;-74
2023/06/12 09:13:50;;;;;;;7.22;3.83;;;;;;;-145.41;100.00;58600.66;5000017;28;20659;-74
2023/06/12 09:16:15;;;;;;;5.78;4.13;;;;;;;-145.41;100.00;58600.66;4997976;28;20034;-73
2023/06/12 09:18:51;;;;;;;7.93;4.55;;;;;;;-145.41;100.00;58600.66;5000967;28;20049;-72
2023/06/12 09:21:17;;;;;;;8.43;4.88;;;;;;;-145.41;100.00;58600.66;5005007;28;20058;-72
2023/06/12 09:23:45;;;;;;;6.13;4.35;;;;;;;-145.41;100.00;58600.66;5005550;28;20056;-73
2023/06/12 09:26:15;;;;;;;5.85;4.40;;;;;;;-145.41;100.00;58600.66;5002731;28;20074;-73
2023/06/12 09:28:42;;;;;;;6.63;3.95;;;;;;;-145.41;100.00;58600.66;4999336;28;20034;-73
2023/06/12 09:31:08;;;;;;;5.10;3.78;;;;;;;-145.41;100.00;58600.66;4992207;28;20045;-73
2023/06/12 09:33:39;;;;;;;6.55;4.50;;;;;;;-145.41;100.00;58600.66;5004260;28;20029;-74
2023/06/12 09:36:04;;;;;;;6.07;4.47;;;;;;;-145.41;100.00;58600.66;4992727;28;20089;-75
2023/06/12 09:38:31;;;;;;;8.43;4.78;;;;;;;-145.41;100.00;58600.66;4979673;28;20038;-74
2023/06/12 09:40:58;;;;;;;7.30;5.13;;;;;;;-145.41;100.00;58600.66;5003120;28;20048;-75
2023/06/12 09:43:26;;;;;;;7.30;5.05;;;;;;;-145.41;100.00;58600.66;4997736;28;20030;-74
2023/06/12 09:45:52;;;;;;;6.90;3.47;;;;;;;-145.41;100.00;58600.66;5005996;28;20092;-74
2023/06/12 09:48:17;;;;;;;6.63;3.97;;;;;;;-145.41;100.00;58600.66;4996944;28;20033;-74
2023/06/12 09:50:44;;;;;;;6.03;4.30;;;;;;;-145.41;100.00;58600.66;4997441;28;20046;-75
2023/06/12 09:53:12;;;;;;;5.25;4.20;;;;;;;-145.41;100.00;58600.66;5000771;28;20037;-74
2023/06/12 09:55:40;;;;;;;5.22;4.00;;;;;;;-145.41;100.00;58600.66;4996430;28;20035;-74
2023/06/12 09:58:08;;;;;;;5.75;4.00;;;;;;;-145.41;100.00;58600.66;4999290;28;20037;-75
2023/06/12 10:00:34;;;;;;;5.78;4.40;;;;;;;-145.41;100.00;58600.66;5005795;28;20587;-74
2023/06/12 10:03:04;;;;;;;7.07;3.75;;;;;;;-145.41;100.00;58600.66;4992705;28;20045;-75
2023/06/12 10:05:42;;;;;;;5.43;4.25;;;;;;;-145.41;100.00;58600.66;4997398;28;20033;-75
2023/06/12 10:08:08;;;;;;;4.50;3.80;;;;;;;-145.41;100.00;58600.66;5002213;28;20062;-75
2023/06/12 10:10:35;;;;;;;5.57;4.22;;;;;;;-145.41;100.00;58600.66;4996568;28;20046;-74
2023/06/12 10:13:04;;;;;;;5.40;3.95;;;;;;;-145.41;100.00;58600.66;5004854;28;20044;-75
2023/06/12 10:15:31;;;;;;;7.05;4.18;;;;;;;-145.41;100.00;58600.66;5002591;28;20034;-75
2023/06/12 10:17:57;;;;;;;6.13;4.32;;;;;;;-145.41;100.00;58600.66;4983412;28;20105;-73
2023/06/12 10:20:24;;;;;;;5.70;3.70;;;;;;;-145.41;100.00;58600.66;5003926;28;20026;-74
2023/06/12 10:22:52;;;;;;;6.15;3.90;;;;;;;-145.41;100.00;58600.66;5002779;28;20073;-74
2023/06/12 10:25:17;;;;;;;5.00;3.72;;;;;;;-145.41;100.00;58600.66;4997247;28;20097;-73
2023/06/12 10:27:43;;;;;;;6.18;3.88;;;;;;;-145.41;100.00;58600.66;5005695;28;20485;-74
2023/06/12 10:30:11;;;;;;;6.15;3.72;;;;;;;-145.41;100.00;58600.66;5001468;28;20026;-74
2023/06/12 10:32:37;;;;;;;11.57;4.50;;;;;;;-145.41;100.00;58600.66;4997403;28;20030;-73
2023/06/12 10:35:03;;;;;;;4.85;3.63;;;;;;;-145.41;100.00;58600.66;5006897;28;20044;-73
2023/06/12 10:37:29;;;;;;;5.18;3.70;;;;;;;-145.41;100.00;58600.66;4995387;28;20038;-74
2023/06/12 10:40:15;;;;;;;8.23;3.78;;;;;;;-145.41;100.00;58600.66;4996613;28;20126;-74
2023/06/12 10:42:47;;;;;;;6.93;4.63;;;;;;;-145.41;100.00;58600.66;5001479;28;20396;-74
2023/06/12 10:45:28;;;;;;;5.18;3.60;;;;;;;-145.41;100.00;58600.66;4996879;28;20626;-74
2023/06/12 10:48:03;;;;;;;5.93;3.75;;;;;;;-145.41;100.00;58600.66;4998423;28;20038;-74
2023/06/12 10:50:30;;;;;;;6.13;4.15;;;;;;;-145.41;100.00;58600.66;4995628;28;20488;-74
2023/06/12 10:52:56;;;;;;;6.38;4.07;;;;;;;-145.41;100.00;58600.66;4993106;28;20477;-73
2023/06/12 10:55:27;;;;;;;5.75;3.92;;;;;;;-145.41;100.00;58600.66;5000622;28;20048;-73
2023/06/12 10:57:54;;;;;;;;;;;;;;;-145.41;100.00;58600.66;5003372;28;20048;-73
2023/06/12 11:00:23;;;;;;;6.85;4.70;;;;;;;-145.41;100.00;58600.66;4995194;28;20380;-72
2023/06/12 11:02:58;;;;;;;8.23;5.28;;;;;;;-145.41;100.00;58600.66;4991309;28;20034;-72
2023/06/12 11:05:25;;;;;;;7.18;5.00;;;;;;;-145.41;100.00;58600.66;4992931;28;20045;-72
2023/06/12 11:07:50;;;;;;;9.27;4.20;;;;;;;-145.41;100.00;58600.66;4992257;28;20577;-72
2023/06/12 11:10:16;;;;;;;5.25;4.22;;;;;;;-145.41;100.00;58600.66;4994256;28;20117;-72